createdAt,value
2022-08-29T00:00:17.904Z,23.40
2022-08-29T00:02:19.641Z,23.38
2022-08-29T00:04:21.173Z,23.38
2022-08-29T00:06:22.524Z,23.37
2022-08-29T00:08:23.853Z,23.36
2022-08-29T00:10:25.532Z,23.36
2022-08-29T00:12:26.857Z,23.33
2022-08-29T00:14:28.599Z,23.34
2022-08-29T00:16:29.984Z,23.34
2022-08-29T00:18:31.327Z,23.32
2022-08-29T00:20:34.342Z,23.31
2022-08-29T00:22:36.114Z,23.30
2022-08-29T00:24:37.414Z,23.31
2022-08-29T00:26:38.811Z,23.30
2022-08-29T00:28:40.118Z,23.28
2022-08-29T00:30:41.435Z,23.30
2022-08-29T00:32:42.823Z,23.29
2022-08-29T00:34:44.127Z,23.29
2022-08-29T00:36:48.907Z,23.30
2022-08-29T00:38:50.940Z,23.33
2022-08-29T00:40:52.616Z,23.34
2022-08-29T00:43:12.347Z,23.33
2022-08-29T00:45:13.676Z,23.29
2022-08-29T00:47:14.978Z,23.28
2022-08-29T00:49:16.285Z,23.29
2022-08-29T00:51:17.663Z,23.27
2022-08-29T00:53:19.839Z,23.27
2022-08-29T00:55:22.563Z,23.27
2022-08-29T00:57:23.866Z,23.27
2022-08-29T00:59:26.010Z,23.29
2022-08-29T01:01:29.140Z,23.24
2022-08-29T01:03:30.518Z,23.24
2022-08-29T01:05:32.350Z,23.22
2022-08-29T01:07:33.843Z,23.21
2022-08-29T01:09:39.313Z,23.20
2022-08-29T01:11:59.200Z,23.22
2022-08-29T01:14:01.202Z,23.20
2022-08-29T01:16:03.043Z,23.20
2022-08-29T01:18:04.890Z,23.21
2022-08-29T01:20:06.210Z,23.25
2022-08-29T01:22:07.598Z,23.28
2022-08-29T01:24:09.896Z,23.28
2022-08-29T01:26:11.839Z,23.28
2022-08-29T01:28:13.452Z,23.26
2022-08-29T01:30:15.260Z,23.26
2022-08-29T01:32:17.199Z,23.27
2022-08-29T01:34:18.631Z,23.26
2022-08-29T01:36:19.947Z,23.25
2022-08-29T01:38:27.709Z,23.24
2022-08-29T01:40:29.141Z,23.23
2022-08-29T01:42:35.429Z,23.23
2022-08-29T01:44:38.874Z,23.23
2022-08-29T01:46:40.195Z,23.22
2022-08-29T01:48:41.511Z,23.22
2022-08-29T01:50:42.866Z,23.22
2022-08-29T01:52:44.175Z,23.21
2022-08-29T01:54:45.551Z,23.20
2022-08-29T01:56:46.926Z,23.19
2022-08-29T01:58:48.233Z,23.27
2022-08-29T02:00:49.636Z,23.28
2022-08-29T02:02:50.970Z,23.26
2022-08-29T02:04:52.279Z,23.27
2022-08-29T02:06:55.670Z,23.25
2022-08-29T02:08:56.982Z,23.25
2022-08-29T02:10:58.581Z,23.25
2022-08-29T02:12:59.895Z,23.26
2022-08-29T02:15:01.335Z,22.16
2022-08-29T02:17:02.725Z,23.25
2022-08-29T02:19:04.078Z,23.23
2022-08-29T02:21:05.382Z,23.22
2022-08-29T02:23:17.294Z,23.22
2022-08-29T02:25:43.676Z,23.25
2022-08-29T02:27:45.222Z,23.25
2022-08-29T02:29:46.605Z,23.26
2022-08-29T02:31:48.717Z,23.25
2022-08-29T02:33:50.229Z,23.25
2022-08-29T02:35:51.551Z,23.25
2022-08-29T02:37:52.930Z,23.22
2022-08-29T02:39:54.411Z,23.21
2022-08-29T02:41:55.764Z,23.21
2022-08-29T02:43:58.712Z,23.21
2022-08-29T02:46:00.035Z,23.19
2022-08-29T02:48:01.413Z,23.18
2022-08-29T02:50:02.803Z,23.16
2022-08-29T02:52:06.677Z,23.16
2022-08-29T02:54:08.140Z,23.15
2022-08-29T02:56:09.928Z,23.13
2022-08-29T02:58:15.987Z,23.14
2022-08-29T03:00:17.498Z,23.11
2022-08-29T03:02:18.874Z,23.12
2022-08-29T03:04:20.211Z,23.12
2022-08-29T03:06:21.619Z,23.11
2022-08-29T03:08:22.952Z,23.09
2022-08-29T03:10:24.259Z,23.10
2022-08-29T03:12:25.598Z,23.09
2022-08-29T03:14:29.552Z,23.10
2022-08-29T03:16:30.918Z,23.12
2022-08-29T03:18:32.299Z,23.10
2022-08-29T03:20:33.638Z,23.11
2022-08-29T03:22:35.016Z,23.11
2022-08-29T03:24:36.466Z,23.10
2022-08-29T03:26:37.770Z,23.09
2022-08-29T03:28:39.117Z,23.11
2022-08-29T03:30:40.431Z,23.11
2022-08-29T03:32:41.739Z,23.11
2022-08-29T03:34:43.990Z,23.10
2022-08-29T03:36:45.318Z,23.08
2022-08-29T03:38:46.712Z,23.08
2022-08-29T03:40:48.151Z,23.09
2022-08-29T03:42:49.521Z,23.10
2022-08-29T03:44:50.879Z,23.09
2022-08-29T03:46:52.371Z,23.08
2022-08-29T03:48:53.750Z,23.07
2022-08-29T03:50:56.535Z,23.07
2022-08-29T03:52:58.133Z,23.06
2022-08-29T03:55:00.167Z,23.05
2022-08-29T03:57:01.475Z,23.05
2022-08-29T03:59:02.803Z,23.04
2022-08-29T04:01:04.114Z,23.03
2022-08-29T04:03:05.575Z,23.04
2022-08-29T04:05:09.828Z,23.06
2022-08-29T04:07:13.224Z,23.08
2022-08-29T04:09:14.576Z,23.06
2022-08-29T04:11:15.968Z,23.05
2022-08-29T04:13:17.283Z,23.06
2022-08-29T04:15:18.590Z,23.05
2022-08-29T04:17:19.911Z,23.03
2022-08-29T04:19:21.284Z,23.05
2022-08-29T04:21:22.674Z,23.02
2022-08-29T04:23:23.971Z,22.98
2022-08-29T04:25:25.275Z,22.96
2022-08-29T04:27:26.626Z,22.96
2022-08-29T04:29:28.004Z,22.96
2022-08-29T04:31:29.400Z,22.95
2022-08-29T04:33:31.262Z,22.99
2022-08-29T04:35:32.625Z,23.03
2022-08-29T04:37:33.938Z,23.03
2022-08-29T04:39:35.238Z,23.02
2022-08-29T04:41:36.804Z,23.02
2022-08-29T04:43:38.154Z,23.03
2022-08-29T04:45:40.629Z,23.04
2022-08-29T04:47:41.962Z,23.03
2022-08-29T04:49:43.364Z,23.01
2022-08-29T04:51:44.666Z,23.01
2022-08-29T04:53:46.688Z,23.00
2022-08-29T04:55:48.051Z,23.02
2022-08-29T04:57:49.419Z,22.99
2022-08-29T04:59:50.850Z,23.00
2022-08-29T05:01:54.401Z,22.99
2022-08-29T05:03:56.560Z,22.98
2022-08-29T05:05:57.981Z,22.99
2022-08-29T05:07:59.318Z,23.01
2022-08-29T05:10:00.996Z,23.06
2022-08-29T05:12:07.095Z,23.04
2022-08-29T05:14:11.068Z,23.04
2022-08-29T05:16:12.467Z,23.02
2022-08-29T05:18:13.912Z,22.98
2022-08-29T05:20:15.495Z,22.96
2022-08-29T05:22:16.795Z,22.95
2022-08-29T05:24:18.164Z,22.96
2022-08-29T05:26:19.498Z,23.00
2022-08-29T05:28:20.819Z,23.01
2022-08-29T05:30:35.143Z,23.03
2022-08-29T05:32:36.819Z,23.03
2022-08-29T05:34:38.415Z,23.04
2022-08-29T05:36:39.740Z,23.05
2022-08-29T05:38:41.046Z,23.02
2022-08-29T05:40:42.432Z,23.03
2022-08-29T05:42:43.876Z,22.95
2022-08-29T05:44:45.268Z,22.84
2022-08-29T05:46:46.716Z,22.76
2022-08-29T05:48:48.550Z,22.70
2022-08-29T05:50:49.858Z,22.75
2022-08-29T05:52:51.189Z,22.77
2022-08-29T05:54:52.499Z,22.79
2022-08-29T05:56:53.843Z,22.79
2022-08-29T05:58:55.156Z,22.80
2022-08-29T06:00:56.474Z,22.80
2022-08-29T06:02:57.938Z,22.79
2022-08-29T06:04:59.350Z,22.82
2022-08-29T06:07:00.657Z,22.82
2022-08-29T06:09:01.999Z,22.81
2022-08-29T06:11:03.311Z,22.82
2022-08-29T06:13:04.626Z,22.87
2022-08-29T06:15:06.583Z,22.86
2022-08-29T06:17:09.269Z,22.86
2022-08-29T06:19:11.889Z,22.83
2022-08-29T06:21:13.191Z,22.82
2022-08-29T06:23:14.532Z,22.84
2022-08-29T06:25:37.947Z,22.88
2022-08-29T06:27:37.251Z,22.87
2022-08-29T06:29:43.494Z,22.84
2022-08-29T06:31:45.210Z,22.85
2022-08-29T06:33:46.520Z,22.84
2022-08-29T06:35:47.850Z,22.87
2022-08-29T06:37:49.159Z,22.93
2022-08-29T06:39:50.534Z,22.96
2022-08-29T06:41:51.905Z,22.96
2022-08-29T06:43:53.211Z,22.96
2022-08-29T06:45:54.579Z,22.95
2022-08-29T06:47:56.111Z,22.94
2022-08-29T06:49:57.420Z,22.96
2022-08-29T06:51:58.830Z,23.00
2022-08-29T06:54:00.263Z,23.07
2022-08-29T06:56:02.362Z,23.16
2022-08-29T06:58:03.701Z,23.13
2022-08-29T07:00:12.419Z,23.13
2022-08-29T07:02:22.801Z,23.06
2022-08-29T07:04:26.725Z,23.02
2022-08-29T07:06:28.339Z,22.93
2022-08-29T07:08:29.649Z,22.83
2022-08-29T07:10:30.951Z,22.79
2022-08-29T07:12:32.310Z,22.73
2022-08-29T07:14:33.624Z,22.70
2022-08-29T07:16:35.591Z,22.67
2022-08-29T07:18:36.908Z,22.65
2022-08-29T07:20:39.393Z,22.62
2022-08-29T07:22:40.875Z,22.62
2022-08-29T07:24:42.195Z,22.61
2022-08-29T07:26:43.662Z,22.59
2022-08-29T07:28:47.233Z,22.58
2022-08-29T07:30:48.746Z,22.57
2022-08-29T07:32:50.182Z,22.56
2022-08-29T07:34:55.820Z,22.55
2022-08-29T07:36:57.476Z,22.55
2022-08-29T07:38:58.800Z,21.76
2022-08-29T07:41:00.203Z,21.62
2022-08-29T07:43:02.154Z,21.74
2022-08-29T07:45:03.498Z,21.61
2022-08-29T07:47:05.046Z,21.31
2022-08-29T07:49:07.146Z,21.27
2022-08-29T07:51:10.681Z,21.29
2022-08-29T07:53:12.124Z,21.49
2022-08-29T07:55:13.598Z,21.42
2022-08-29T07:57:14.894Z,21.42
2022-08-29T07:59:16.224Z,21.47
2022-08-29T08:01:21.028Z,21.54
2022-08-29T08:03:23.075Z,21.95
2022-08-29T08:05:24.483Z,22.31
2022-08-29T08:07:29.387Z,22.43
2022-08-29T08:09:31.011Z,22.44
2022-08-29T08:11:32.351Z,22.58
2022-08-29T08:13:33.748Z,22.51
2022-08-29T08:15:35.085Z,21.90
2022-08-29T08:17:38.900Z,22.18
2022-08-29T08:19:43.295Z,22.31
2022-08-29T08:21:49.632Z,22.55
2022-08-29T08:23:52.241Z,22.68
2022-08-29T08:25:53.585Z,22.84
2022-08-29T08:27:54.952Z,22.83
2022-08-29T08:29:59.737Z,22.86
2022-08-29T08:32:01.392Z,22.88
2022-08-29T08:34:02.810Z,22.90
2022-08-29T08:36:04.137Z,22.89
2022-08-29T08:38:05.451Z,22.89
2022-08-29T08:40:06.881Z,22.91
2022-08-29T08:42:08.383Z,22.89
2022-08-29T08:44:09.712Z,22.87
2022-08-29T08:46:11.383Z,22.91
2022-08-29T08:48:12.761Z,22.92
2022-08-29T08:50:14.131Z,22.94
2022-08-29T08:52:16.106Z,22.95
2022-08-29T08:54:17.473Z,22.97
2022-08-29T08:56:18.856Z,22.97
2022-08-29T08:58:29.027Z,22.99
2022-08-29T09:00:30.692Z,23.00
2022-08-29T09:02:33.750Z,22.98
2022-08-29T09:04:35.179Z,23.00
2022-08-29T09:06:36.555Z,23.01
2022-08-29T09:08:38.074Z,23.01
2022-08-29T09:10:39.414Z,23.03
2022-08-29T09:12:41.236Z,22.99
2022-08-29T09:14:42.660Z,22.98
2022-08-29T09:16:44.019Z,22.97
2022-08-29T09:18:47.885Z,22.97
2022-08-29T09:20:57.018Z,22.99
2022-08-29T09:22:59.105Z,22.99
2022-08-29T09:25:00.448Z,23.00
2022-08-29T09:27:01.760Z,23.01
2022-08-29T09:29:03.195Z,22.99
2022-08-29T09:31:04.583Z,22.99
2022-08-29T09:33:07.705Z,22.98
2022-08-29T09:35:10.037Z,22.98
2022-08-29T09:37:11.607Z,22.97
2022-08-29T09:39:12.924Z,23.00
2022-08-29T09:41:15.216Z,22.96
2022-08-29T09:43:17.083Z,22.96
2022-08-29T09:45:18.548Z,22.96
2022-08-29T09:47:20.636Z,22.96
2022-08-29T09:49:22.569Z,22.91
2022-08-29T09:51:24.507Z,22.90
2022-08-29T09:53:25.969Z,22.92
2022-08-29T09:55:27.425Z,22.95
2022-08-29T09:57:28.774Z,22.95
2022-08-29T09:59:30.157Z,22.95
2022-08-29T10:01:32.433Z,22.92
2022-08-29T10:03:39.142Z,22.94
2022-08-29T10:05:44.268Z,22.93
2022-08-29T10:07:45.684Z,22.98
2022-08-29T10:09:47.002Z,22.99
2022-08-29T10:11:54.262Z,23.01
2022-08-29T10:13:57.661Z,23.02
2022-08-29T10:15:59.026Z,23.03
2022-08-29T10:18:20.116Z,23.03
2022-08-29T10:20:21.736Z,23.04
2022-08-29T10:24:25.758Z,23.05
2022-08-29T10:26:27.127Z,23.06
2022-08-29T10:28:28.435Z,23.05
2022-08-29T10:30:29.803Z,23.05
2022-08-29T10:32:31.283Z,23.07
2022-08-29T10:34:32.599Z,23.07
2022-08-29T10:36:34.246Z,23.07
2022-08-29T10:38:35.598Z,23.07
2022-08-29T10:40:37.903Z,23.08
2022-08-29T10:42:44.569Z,23.08
2022-08-29T10:44:45.890Z,23.09
2022-08-29T10:46:47.207Z,23.09
2022-08-29T10:48:49.075Z,23.08
2022-08-29T10:50:50.644Z,23.08
2022-08-29T10:52:52.428Z,23.09
2022-08-29T10:54:53.759Z,23.09
2022-08-29T10:56:55.077Z,23.09
2022-08-29T10:58:56.935Z,23.10
2022-08-29T11:00:58.408Z,23.10
2022-08-29T11:02:59.808Z,23.10
2022-08-29T11:05:01.172Z,23.11
2022-08-29T11:07:02.565Z,23.12
2022-08-29T11:09:04.000Z,23.13
2022-08-29T11:11:05.403Z,23.15
2022-08-29T11:13:06.797Z,23.16
2022-08-29T11:15:08.543Z,23.16
2022-08-29T11:17:10.096Z,23.16
2022-08-29T11:19:11.424Z,23.18
2022-08-29T11:21:12.761Z,23.18
2022-08-29T11:23:14.134Z,23.19
2022-08-29T11:25:15.956Z,23.20
2022-08-29T11:27:17.315Z,23.21
2022-08-29T11:29:18.745Z,23.20
2022-08-29T11:31:20.116Z,23.18
2022-08-29T11:33:22.260Z,23.01
2022-08-29T11:35:23.612Z,23.22
2022-08-29T11:37:25.600Z,23.23
2022-08-29T11:39:26.919Z,23.23
2022-08-29T11:41:29.174Z,23.23
2022-08-29T11:43:31.127Z,23.23
2022-08-29T11:45:36.900Z,23.24
2022-08-29T11:47:40.857Z,23.25
2022-08-29T11:49:42.853Z,23.27
2022-08-29T11:51:44.177Z,23.28
2022-08-29T11:53:45.500Z,23.29
2022-08-29T11:55:46.810Z,23.30
2022-08-29T11:57:48.139Z,23.32
2022-08-29T11:59:49.486Z,23.32
2022-08-29T12:01:50.858Z,23.34
2022-08-29T12:03:52.264Z,23.36
2022-08-29T12:05:53.839Z,23.38
2022-08-29T12:07:55.386Z,23.40
2022-08-29T12:09:56.726Z,23.40
2022-08-29T12:11:58.115Z,23.42
2022-08-29T12:13:59.564Z,23.44
2022-08-29T12:16:02.763Z,23.44
2022-08-29T12:18:04.421Z,23.45
2022-08-29T12:20:07.536Z,23.47
2022-08-29T12:22:14.126Z,23.48
2022-08-29T12:24:23.791Z,23.50
2022-08-29T12:26:25.104Z,23.51
2022-08-29T12:28:31.301Z,23.52
2022-08-29T12:30:32.734Z,23.54
2022-08-29T12:32:34.123Z,23.55
2022-08-29T12:34:35.895Z,23.56
2022-08-29T12:36:37.386Z,23.57
2022-08-29T12:38:42.026Z,23.58
2022-08-29T12:40:43.944Z,23.59
2022-08-29T12:42:45.371Z,23.60
2022-08-29T12:44:46.884Z,23.60
2022-08-29T12:46:48.304Z,23.62
2022-08-29T12:48:57.650Z,23.62
2022-08-29T12:51:00.775Z,23.62
2022-08-29T12:53:02.288Z,23.61
2022-08-29T12:55:03.626Z,23.60
2022-08-29T12:57:04.972Z,23.60
2022-08-29T12:59:06.421Z,23.62
2022-08-29T13:01:07.871Z,23.61
2022-08-29T13:03:09.528Z,23.60
2022-08-29T13:05:16.824Z,23.60
2022-08-29T13:07:18.494Z,23.58
2022-08-29T13:09:19.873Z,23.58
2022-08-29T13:11:21.248Z,23.58
2022-08-29T13:13:22.638Z,23.60
2022-08-29T13:15:30.832Z,23.59
2022-08-29T13:17:34.552Z,23.60
2022-08-29T13:19:36.312Z,23.61
2022-08-29T13:21:37.636Z,23.59
2022-08-29T13:23:39.203Z,23.61
2022-08-29T13:25:40.597Z,23.60
2022-08-29T13:27:42.045Z,23.62
2022-08-29T13:29:43.401Z,23.63
2022-08-29T13:31:44.863Z,23.62
2022-08-29T13:33:46.238Z,23.64
2022-08-29T13:35:47.551Z,23.64
2022-08-29T13:37:48.864Z,23.64
2022-08-29T13:39:50.233Z,23.63
2022-08-29T13:41:51.649Z,23.63
2022-08-29T13:43:52.969Z,23.62
2022-08-29T13:45:54.316Z,23.63
2022-08-29T13:47:55.761Z,23.62
2022-08-29T13:49:57.139Z,23.61
2022-08-29T13:51:58.566Z,23.60
2022-08-29T13:53:59.932Z,23.60
2022-08-29T13:56:01.298Z,23.58
2022-08-29T13:58:02.939Z,23.56
2022-08-29T14:00:05.260Z,23.50
2022-08-29T14:02:09.076Z,23.46
2022-08-29T14:04:36.820Z,23.44
2022-08-29T14:06:51.471Z,23.44
2022-08-29T14:08:53.186Z,23.44
2022-08-29T14:10:54.531Z,23.44
2022-08-29T14:12:55.867Z,23.41
2022-08-29T14:14:57.193Z,23.42
2022-08-29T14:16:58.793Z,23.44
2022-08-29T14:19:00.187Z,22.41
2022-08-29T14:21:01.498Z,23.45
2022-08-29T14:23:02.844Z,23.45
2022-08-29T14:25:04.262Z,23.43
2022-08-29T14:27:05.570Z,23.41
2022-08-29T14:29:06.962Z,23.43
2022-08-29T14:31:08.333Z,23.44
2022-08-29T14:33:09.739Z,23.43
2022-08-29T14:35:11.315Z,23.42
2022-08-29T14:37:27.706Z,23.38
2022-08-29T14:39:29.032Z,23.36
2022-08-29T14:41:30.356Z,23.31
2022-08-29T14:43:34.239Z,23.26
2022-08-29T14:45:37.784Z,23.23
2022-08-29T14:47:39.227Z,23.17
2022-08-29T14:49:40.599Z,23.13
2022-08-29T14:51:42.112Z,23.09
2022-08-29T14:53:51.566Z,23.07
2022-08-29T14:55:56.039Z,23.03
2022-08-29T14:57:57.423Z,23.01
2022-08-29T14:59:58.755Z,23.01
2022-08-29T15:02:00.152Z,23.00
2022-08-29T15:04:01.593Z,22.99
2022-08-29T15:06:02.933Z,22.99
2022-08-29T15:08:06.502Z,22.99
2022-08-29T15:10:08.239Z,22.98
2022-08-29T15:12:09.609Z,22.97
2022-08-29T15:14:10.967Z,22.96
2022-08-29T15:16:12.412Z,22.95
2022-08-29T15:18:30.589Z,22.94
2022-08-29T15:20:37.699Z,22.93
2022-08-29T15:22:39.944Z,22.94
2022-08-29T15:24:41.280Z,22.94
2022-08-29T15:26:44.919Z,22.98
2022-08-29T15:28:46.257Z,22.99
2022-08-29T15:30:47.739Z,22.98
2022-08-29T15:32:49.400Z,22.95
2022-08-29T15:34:50.756Z,22.93
2022-08-29T15:36:52.286Z,22.90
2022-08-29T15:38:53.607Z,22.87
2022-08-29T15:40:55.017Z,22.88
2022-08-29T15:42:56.472Z,22.87
2022-08-29T15:44:57.896Z,22.87
2022-08-29T15:46:59.250Z,22.87
2022-08-29T15:49:02.828Z,22.86
2022-08-29T15:51:04.986Z,22.84
2022-08-29T15:53:06.551Z,22.85
2022-08-29T15:55:08.035Z,22.84
2022-08-29T15:57:09.527Z,22.84
2022-08-29T15:59:10.848Z,22.84
2022-08-29T16:01:12.255Z,22.86
2022-08-29T16:03:13.692Z,22.86
2022-08-29T16:05:15.051Z,22.83
2022-08-29T16:07:16.881Z,22.80
2022-08-29T16:09:18.216Z,22.79
2022-08-29T16:11:19.567Z,22.78
2022-08-29T16:13:21.132Z,22.76
2022-08-29T16:15:22.886Z,22.73
2022-08-29T16:17:24.272Z,22.72
2022-08-29T16:19:25.694Z,22.71
2022-08-29T16:21:27.010Z,22.70
2022-08-29T16:23:28.319Z,22.68
2022-08-29T16:25:29.683Z,22.69
2022-08-29T16:27:31.009Z,22.68
2022-08-29T16:29:33.834Z,22.68
2022-08-29T16:31:35.264Z,22.67
2022-08-29T16:33:36.628Z,22.65
2022-08-29T16:35:37.963Z,22.63
2022-08-29T16:37:39.286Z,22.61
2022-08-29T16:39:40.631Z,22.60
2022-08-29T16:41:42.562Z,22.59
2022-08-29T16:43:43.927Z,22.58
2022-08-29T16:45:45.474Z,22.57
2022-08-29T16:47:47.250Z,22.56
2022-08-29T16:49:48.610Z,22.54
2022-08-29T16:51:49.988Z,22.53
2022-08-29T16:53:51.304Z,22.52
2022-08-29T16:55:52.632Z,22.51
2022-08-29T16:58:12.775Z,22.50
2022-08-29T17:00:14.178Z,22.49
2022-08-29T17:02:15.606Z,22.48
2022-08-29T17:04:16.931Z,22.47
2022-08-29T17:06:18.316Z,22.46
2022-08-29T17:08:19.599Z,22.46
2022-08-29T17:10:20.879Z,22.45
2022-08-29T17:12:22.164Z,22.44
2022-08-29T17:14:25.830Z,22.43
2022-08-29T17:16:27.178Z,22.42
2022-08-29T17:18:29.119Z,22.41
2022-08-29T17:20:34.196Z,22.41
2022-08-29T17:22:38.266Z,22.40
2022-08-29T17:24:40.322Z,22.39
2022-08-29T17:26:42.340Z,22.37
2022-08-29T17:28:44.237Z,22.37
2022-08-29T17:30:45.599Z,22.37
2022-08-29T17:32:47.007Z,22.36
2022-08-29T17:34:49.144Z,22.35
2022-08-29T17:36:50.515Z,22.35
2022-08-29T17:38:51.851Z,22.34
2022-08-29T17:40:53.693Z,22.33
2022-08-29T17:42:55.117Z,22.32
2022-08-29T17:44:57.800Z,22.31
2022-08-29T17:46:59.186Z,22.30
2022-08-29T17:49:04.220Z,22.30
2022-08-29T17:51:08.369Z,22.29
2022-08-29T17:53:09.765Z,22.28
2022-08-29T17:55:11.197Z,22.27
2022-08-29T17:57:12.527Z,22.28
2022-08-29T17:59:13.840Z,22.26
2022-08-29T18:01:16.530Z,22.26
2022-08-29T18:03:19.531Z,22.25
2022-08-29T18:05:20.942Z,22.24
2022-08-29T18:07:22.312Z,22.24
2022-08-29T18:09:23.654Z,22.22
2022-08-29T18:11:25.003Z,22.23
2022-08-29T18:13:26.315Z,22.22
2022-08-29T18:15:28.396Z,22.21
2022-08-29T18:17:32.075Z,22.21
2022-08-29T18:19:33.502Z,22.21
2022-08-29T18:21:34.923Z,22.20
2022-08-29T18:23:36.252Z,22.19
2022-08-29T18:25:37.580Z,22.18
2022-08-29T18:27:43.607Z,22.18
2022-08-29T18:29:45.599Z,22.17
2022-08-29T18:31:46.964Z,22.15
2022-08-29T18:34:03.619Z,22.16
2022-08-29T18:36:05.041Z,22.17
2022-08-29T18:38:07.855Z,22.17
2022-08-29T18:40:09.479Z,22.18
2022-08-29T18:42:30.443Z,22.27
2022-08-29T18:44:32.327Z,22.07
2022-08-29T18:46:33.699Z,21.53
2022-08-29T18:48:35.023Z,21.57
2022-08-29T18:50:39.099Z,21.76
2022-08-29T18:52:40.450Z,21.87
2022-08-29T18:54:41.907Z,22.50
2022-08-29T18:56:43.259Z,22.92
2022-08-29T18:58:44.720Z,23.30
2022-08-29T19:00:46.163Z,23.39
2022-08-29T19:02:50.766Z,23.49
2022-08-29T19:04:52.086Z,23.52
2022-08-29T19:06:53.501Z,23.54
2022-08-29T19:08:54.827Z,23.60
2022-08-29T19:10:56.231Z,23.67
2022-08-29T19:12:58.231Z,23.68
2022-08-29T19:15:00.185Z,23.75
2022-08-29T19:17:03.003Z,23.78
2022-08-29T19:19:05.462Z,23.82
2022-08-29T19:21:14.003Z,23.95
2022-08-29T19:23:16.077Z,23.89
2022-08-29T19:25:17.468Z,23.91
2022-08-29T19:27:41.750Z,24.07
2022-08-29T19:29:40.428Z,24.21
2022-08-29T19:31:44.826Z,24.23
2022-08-29T19:33:46.232Z,24.31
2022-08-29T19:35:49.765Z,24.32
2022-08-29T19:37:51.894Z,24.32
2022-08-29T19:39:53.400Z,24.28
2022-08-29T19:41:54.779Z,24.15
2022-08-29T19:43:56.836Z,23.70
2022-08-29T19:46:02.213Z,23.34
2022-08-29T19:48:03.813Z,23.24
2022-08-29T19:50:05.131Z,23.19
2022-08-29T19:52:06.746Z,23.44
2022-08-29T19:54:08.091Z,23.60
2022-08-29T19:56:09.892Z,23.94
2022-08-29T19:58:11.909Z,24.08
2022-08-29T20:00:13.964Z,24.06
2022-08-29T20:02:15.564Z,24.16
2022-08-29T20:04:17.264Z,24.18
2022-08-29T20:06:18.752Z,24.27
2022-08-29T20:08:21.134Z,24.30
2022-08-29T20:10:22.837Z,24.29
2022-08-29T20:12:24.256Z,24.28
2022-08-29T20:14:25.587Z,24.24
2022-08-29T20:16:27.427Z,24.53
2022-08-29T20:18:28.791Z,24.58
2022-08-29T20:20:30.521Z,24.60
2022-08-29T20:22:31.875Z,24.07
2022-08-29T20:24:34.409Z,23.92
2022-08-29T20:26:35.810Z,24.11
2022-08-29T20:28:37.124Z,24.16
2022-08-29T20:30:38.516Z,24.19
2022-08-29T20:32:39.864Z,24.18
2022-08-29T20:34:41.361Z,24.22
2022-08-29T20:37:01.271Z,24.18
2022-08-29T20:39:02.660Z,23.69
2022-08-29T20:41:04.579Z,23.82
2022-08-29T20:43:06.937Z,24.05
2022-08-29T20:45:08.269Z,24.28
2022-08-29T20:47:09.656Z,24.23
2022-08-29T20:49:13.939Z,24.26
2022-08-29T20:51:15.250Z,24.44
2022-08-29T20:53:32.081Z,24.33
2022-08-29T20:55:34.220Z,24.21
2022-08-29T20:57:39.070Z,24.14
2022-08-29T20:59:40.436Z,23.57
2022-08-29T21:01:43.197Z,23.75
2022-08-29T21:04:03.265Z,24.01
2022-08-29T21:06:04.738Z,24.14
2022-08-29T21:08:06.064Z,24.17
2022-08-29T21:10:07.609Z,24.13
2022-08-29T21:12:08.938Z,24.11
2022-08-29T21:14:10.340Z,24.10
2022-08-29T21:16:11.854Z,24.18
2022-08-29T21:18:13.309Z,24.23
2022-08-29T21:20:14.627Z,24.26
2022-08-29T21:22:16.395Z,24.23
2022-08-29T21:24:17.801Z,24.24
2022-08-29T21:26:19.188Z,24.22
2022-08-29T21:28:20.524Z,24.22
2022-08-29T21:30:23.752Z,24.22
2022-08-29T21:32:25.148Z,23.52
2022-08-29T21:34:26.559Z,23.03
2022-08-29T21:36:29.059Z,23.43
2022-08-29T21:38:30.440Z,23.85
2022-08-29T21:40:31.906Z,24.05
2022-08-29T21:42:33.283Z,24.12
2022-08-29T21:44:34.644Z,24.16
2022-08-29T21:46:36.021Z,24.20
2022-08-29T21:48:37.399Z,24.20
2022-08-29T21:50:38.790Z,24.25
2022-08-29T21:52:40.173Z,24.30
2022-08-29T21:54:41.496Z,24.36
2022-08-29T21:56:43.052Z,24.33
2022-08-29T21:58:44.458Z,24.32
2022-08-29T22:00:45.847Z,24.30
2022-08-29T22:02:47.260Z,24.31
2022-08-29T22:04:48.651Z,24.48
2022-08-29T22:06:52.822Z,24.46
2022-08-29T22:08:54.398Z,23.91
2022-08-29T22:10:56.844Z,23.74
2022-08-29T22:12:58.247Z,23.73
2022-08-29T22:15:18.155Z,23.65
2022-08-29T22:17:19.508Z,23.55
2022-08-29T22:19:21.047Z,23.51
2022-08-29T22:21:22.400Z,23.47
2022-08-29T22:23:24.550Z,23.42
2022-08-29T22:25:26.031Z,23.38
2022-08-29T22:27:27.369Z,23.37
2022-08-29T22:29:28.722Z,23.38
2022-08-29T22:31:31.911Z,23.37
2022-08-29T22:33:33.339Z,23.35
2022-08-29T22:35:34.668Z,23.33
2022-08-29T22:37:36.841Z,23.30
2022-08-29T22:39:39.418Z,23.30
2022-08-29T22:41:45.422Z,23.27
2022-08-29T22:43:48.734Z,23.26
2022-08-29T22:45:50.686Z,23.25
2022-08-29T22:47:54.508Z,23.22
2022-08-29T22:49:55.859Z,23.20
2022-08-29T22:51:57.196Z,23.18
2022-08-29T22:54:17.048Z,23.18
2022-08-29T22:56:18.375Z,23.15
2022-08-29T22:58:19.703Z,23.14
2022-08-29T23:00:21.078Z,23.15
2022-08-29T23:02:22.528Z,23.11
2022-08-29T23:04:23.887Z,23.05
2022-08-29T23:06:25.294Z,23.05
2022-08-29T23:08:26.677Z,23.07
2022-08-29T23:10:28.487Z,23.08
2022-08-29T23:12:30.111Z,23.07
2022-08-29T23:14:31.443Z,23.07
2022-08-29T23:16:35.611Z,23.05
2022-08-29T23:18:36.969Z,23.03
2022-08-29T23:20:38.512Z,23.04
2022-08-29T23:22:42.831Z,23.02
2022-08-29T23:24:53.791Z,23.01
2022-08-29T23:26:59.979Z,23.00
2022-08-29T23:29:01.357Z,23.00
2022-08-29T23:31:02.755Z,22.99
2022-08-29T23:33:04.179Z,22.99
2022-08-29T23:35:05.515Z,22.99
2022-08-29T23:37:06.869Z,22.98
2022-08-29T23:39:08.227Z,22.97
2022-08-29T23:41:09.544Z,22.99
2022-08-29T23:43:10.899Z,22.99
2022-08-29T23:45:12.214Z,22.99
2022-08-29T23:47:13.551Z,22.97
2022-08-29T23:49:15.051Z,22.96
2022-08-29T23:51:16.436Z,22.97
2022-08-29T23:53:17.857Z,23.00
2022-08-29T23:55:19.284Z,22.99
2022-08-29T23:57:20.696Z,22.99
2022-08-29T23:59:40.574Z,22.96
